Uji, Japan
Current Conditions -  °F | °C
As of 8:00 PM on Friday 24 Oct 2014 (Local Time) from RJOO Reporting Station
Clear Clear  
Wind Chill: 59°   Ceiling: Unl
Heat Index: 59°   Visibility: 6mi
Dew Point: 54°   Wind: 5mph
Humidity: 82%   Direction: 310°NW
Pressure: 30.15"   Gusts: NA
Location:  34.9°N, 135.8°E
Report Text: RJOO 241100Z 31004KT CAVOK 15/12 Q1021 RMK A3016
Loading
Personal Weather Stations






























Interactive Weather Map
Tropical Storm Tracking
New forecast layout! Learn more

10-Day Weather Forecast

Advertisements
Track Severe Weather on mobile